createdAt,value
2023-03-22T00:01:46.310Z,8.58
2023-03-22T00:04:12.886Z,8.56
2023-03-22T00:06:39.551Z,8.54
2023-03-22T00:09:06.092Z,8.54
2023-03-22T00:11:32.544Z,8.52
2023-03-22T00:13:59.655Z,8.48
2023-03-22T00:16:26.558Z,8.45
2023-03-22T00:18:53.145Z,8.44
2023-03-22T00:21:19.853Z,8.43
2023-03-22T00:23:46.380Z,8.41
2023-03-22T00:26:14.771Z,8.38
2023-03-22T00:28:42.883Z,8.35
2023-03-22T00:31:10.872Z,8.32
2023-03-22T00:33:37.791Z,8.31
2023-03-22T00:36:08.384Z,8.31
2023-03-22T00:38:42.837Z,8.30
2023-03-22T00:41:16.375Z,8.27
2023-03-22T00:43:45.127Z,8.26
2023-03-22T00:46:12.827Z,8.27
2023-03-22T00:48:39.804Z,8.27
2023-03-22T00:51:07.049Z,8.24
2023-03-22T00:53:36.247Z,8.22
2023-03-22T00:56:03.772Z,8.21
2023-03-22T00:58:39.109Z,8.21
2023-03-22T01:01:07.338Z,8.19
2023-03-22T01:03:34.912Z,8.18
2023-03-22T01:06:02.190Z,8.17
2023-03-22T01:08:33.236Z,8.16
2023-03-22T01:11:01.284Z,8.14
2023-03-22T01:13:28.969Z,8.15
2023-03-22T01:15:55.946Z,8.15
2023-03-22T01:18:23.428Z,8.14
2023-03-22T01:20:51.373Z,8.13
2023-03-22T01:23:17.914Z,8.11
2023-03-22T01:25:44.408Z,8.11
2023-03-22T01:28:11.016Z,8.12
2023-03-22T01:30:40.525Z,8.11
2023-03-22T01:33:07.663Z,8.11
2023-03-22T01:35:35.405Z,8.12
2023-03-22T01:38:02.199Z,8.11
2023-03-22T01:40:28.798Z,8.11
2023-03-22T01:42:56.719Z,8.12
2023-03-22T01:45:40.603Z,8.12
2023-03-22T01:48:14.511Z,8.11
2023-03-22T01:50:45.330Z,8.12
2023-03-22T01:53:15.380Z,8.13
2023-03-22T01:55:42.475Z,8.15
2023-03-22T01:58:17.986Z,8.17
2023-03-22T02:00:52.946Z,8.17
2023-03-22T02:03:58.480Z,8.18
2023-03-22T02:06:26.927Z,8.18
2023-03-22T02:08:59.911Z,8.20
2023-03-22T02:11:38.567Z,8.19
2023-03-22T02:14:38.612Z,8.21
2023-03-22T02:18:19.510Z,8.21
2023-03-22T02:21:19.095Z,8.22
2023-03-22T02:23:57.808Z,8.24
2023-03-22T02:26:41.478Z,8.21
2023-03-22T02:29:26.353Z,8.20
2023-03-22T02:32:01.497Z,8.19
2023-03-22T02:35:12.072Z,8.17
2023-03-22T02:38:00.237Z,8.15
2023-03-22T02:40:41.498Z,8.16
2023-03-22T02:43:38.601Z,8.16
2023-03-22T02:46:22.851Z,8.19
2023-03-22T02:49:02.056Z,8.18
2023-03-22T02:51:42.921Z,8.20
2023-03-22T02:54:18.436Z,8.20
2023-03-22T02:57:08.366Z,8.21
2023-03-22T02:59:39.353Z,8.23
2023-03-22T03:02:11.221Z,8.23
2023-03-22T03:04:46.239Z,8.24
2023-03-22T03:07:15.594Z,8.27
2023-03-22T03:09:44.021Z,8.29
2023-03-22T03:12:21.091Z,8.29
2023-03-22T03:14:48.454Z,8.30
2023-03-22T03:17:33.204Z,8.32
2023-03-22T03:20:21.988Z,8.32
2023-03-22T03:23:02.295Z,8.30
2023-03-22T03:25:46.695Z,8.27
2023-03-22T03:28:38.399Z,8.27
2023-03-22T03:31:16.141Z,8.26
2023-03-22T03:34:10.112Z,8.27
2023-03-22T03:36:40.718Z,8.26
2023-03-22T03:39:12.207Z,8.25
2023-03-22T03:41:40.624Z,8.24
2023-03-22T03:44:08.736Z,8.27
2023-03-22T03:46:36.350Z,8.29
2023-03-22T03:49:04.563Z,8.31
2023-03-22T03:51:33.362Z,8.32
2023-03-22T03:53:59.880Z,8.34
2023-03-22T03:56:26.319Z,8.35
2023-03-22T03:58:54.341Z,8.37
2023-03-22T04:01:21.325Z,8.40
2023-03-22T04:03:57.715Z,8.44
2023-03-22T04:06:39.531Z,8.45
2023-03-22T04:09:11.879Z,8.46
2023-03-22T04:11:42.775Z,8.47
2023-03-22T04:14:09.726Z,8.49
2023-03-22T04:16:37.660Z,8.48
2023-03-22T04:19:06.308Z,8.51
2023-03-22T04:21:32.818Z,8.51
2023-03-22T04:24:01.266Z,8.55
2023-03-22T04:26:32.484Z,8.55
2023-03-22T04:29:17.299Z,8.57
2023-03-22T04:31:48.779Z,8.57
2023-03-22T04:34:24.394Z,8.58
2023-03-22T04:36:57.374Z,8.59
2023-03-22T04:39:28.381Z,8.61
2023-03-22T04:42:33.492Z,8.61
2023-03-22T04:45:29.377Z,8.62
2023-03-22T04:48:00.227Z,8.63
2023-03-22T04:50:28.408Z,8.61
2023-03-22T04:52:59.535Z,8.64
2023-03-22T04:55:27.535Z,8.64
2023-03-22T04:57:54.668Z,8.65
2023-03-22T05:00:23.223Z,8.68
2023-03-22T05:02:50.618Z,8.69
2023-03-22T05:05:25.847Z,8.69
2023-03-22T05:07:52.759Z,8.69
2023-03-22T05:10:19.527Z,8.69
2023-03-22T05:12:46.174Z,8.69
2023-03-22T05:15:18.312Z,8.67
2023-03-22T05:17:45.770Z,8.67
2023-03-22T05:20:12.338Z,8.64
2023-03-22T05:22:41.215Z,8.62
2023-03-22T05:25:10.714Z,8.60
2023-03-22T05:27:39.626Z,8.60
2023-03-22T05:30:33.647Z,8.58
2023-03-22T05:33:06.855Z,8.58
2023-03-22T05:35:41.780Z,8.57
2023-03-22T05:38:10.604Z,8.57
2023-03-22T05:40:41.748Z,8.56
2023-03-22T05:43:08.492Z,8.55
2023-03-22T05:45:39.621Z,8.53
2023-03-22T05:48:16.964Z,8.51
2023-03-22T05:50:43.921Z,8.50
2023-03-22T05:53:11.876Z,8.50
2023-03-22T05:56:00.830Z,8.51
2023-03-22T05:58:31.651Z,8.52
2023-03-22T06:01:03.996Z,8.52
2023-03-22T06:03:56.580Z,8.52
2023-03-22T06:06:35.071Z,8.53
2023-03-22T06:09:17.199Z,8.55
2023-03-22T06:11:48.021Z,8.58
2023-03-22T06:14:15.885Z,8.59
2023-03-22T06:17:01.131Z,8.64
2023-03-22T06:19:27.751Z,8.65
2023-03-22T06:21:57.166Z,8.66
2023-03-22T06:24:26.343Z,8.66
2023-03-22T06:26:53.184Z,8.69
2023-03-22T06:29:19.826Z,8.72
2023-03-22T06:31:47.839Z,8.78
2023-03-22T06:34:14.475Z,8.87
2023-03-22T06:36:42.439Z,9.00
2023-03-22T06:39:15.900Z,9.16
2023-03-22T06:41:44.370Z,9.38
2023-03-22T06:44:11.310Z,9.85
2023-03-22T06:47:00.786Z,9.74
2023-03-22T06:49:43.406Z,9.67
2023-03-22T06:52:15.589Z,9.60
2023-03-22T06:54:42.367Z,9.55
2023-03-22T06:57:09.944Z,9.57
2023-03-22T06:59:36.391Z,9.61
2023-03-22T07:02:03.248Z,9.67
2023-03-22T07:04:30.388Z,9.69
2023-03-22T07:07:12.790Z,9.70
2023-03-22T07:09:40.541Z,9.71
2023-03-22T07:12:07.205Z,9.72
2023-03-22T07:14:33.938Z,9.69
2023-03-22T07:17:08.698Z,9.69
2023-03-22T07:19:35.544Z,9.70
2023-03-22T07:22:06.737Z,9.70
2023-03-22T07:24:36.014Z,9.69
2023-03-22T07:27:03.703Z,9.69
2023-03-22T07:29:31.694Z,9.71
2023-03-22T07:31:58.893Z,9.76
2023-03-22T07:34:31.535Z,9.85
2023-03-22T07:37:04.956Z,9.93
2023-03-22T07:39:31.925Z,9.96
2023-03-22T07:41:58.744Z,9.99
2023-03-22T07:44:25.827Z,10.03
2023-03-22T07:47:15.502Z,10.11
2023-03-22T07:49:55.846Z,10.14
2023-03-22T07:52:27.509Z,10.15
2023-03-22T07:54:54.088Z,10.16
2023-03-22T07:57:20.734Z,10.18
2023-03-22T07:59:53.881Z,10.22
2023-03-22T08:02:20.830Z,10.30
2023-03-22T08:04:55.749Z,10.39
2023-03-22T08:07:31.574Z,10.50
2023-03-22T08:09:59.323Z,10.56
2023-03-22T08:12:27.988Z,10.63
2023-03-22T08:15:03.765Z,10.71
2023-03-22T08:17:31.786Z,10.78
2023-03-22T08:19:58.620Z,10.79
2023-03-22T08:22:40.173Z,10.77
2023-03-22T08:25:18.814Z,10.78
2023-03-22T08:27:45.854Z,10.76
2023-03-22T08:30:13.579Z,10.76
2023-03-22T08:32:41.013Z,10.77
2023-03-22T08:35:08.722Z,10.78
2023-03-22T08:37:35.381Z,10.81
2023-03-22T08:40:07.814Z,10.86
2023-03-22T08:42:51.800Z,10.92
2023-03-22T08:45:18.749Z,10.99
2023-03-22T08:47:54.831Z,11.11
2023-03-22T08:50:23.648Z,11.15
2023-03-22T08:53:04.218Z,11.34
2023-03-22T08:55:35.278Z,11.41
2023-03-22T08:58:12.596Z,11.39
2023-03-22T09:00:48.671Z,11.35
2023-03-22T09:03:24.900Z,11.23
2023-03-22T09:05:51.566Z,11.14
2023-03-22T09:08:19.493Z,11.09
2023-03-22T09:10:52.493Z,11.06
2023-03-22T09:13:21.737Z,11.06
2023-03-22T09:15:54.226Z,11.07
2023-03-22T09:18:25.327Z,11.12
2023-03-22T09:20:53.861Z,11.13
2023-03-22T09:23:24.976Z,11.19
2023-03-22T09:25:52.296Z,11.16
2023-03-22T09:28:23.906Z,11.18
2023-03-22T09:30:51.367Z,11.22
2023-03-22T09:33:17.928Z,11.22
2023-03-22T09:35:49.225Z,11.16
2023-03-22T09:38:16.315Z,11.11
2023-03-22T09:41:00.754Z,11.08
2023-03-22T09:43:35.691Z,11.03
2023-03-22T09:46:06.594Z,11.00
2023-03-22T09:48:37.080Z,11.02
2023-03-22T09:51:05.576Z,10.94
2023-03-22T09:53:32.885Z,10.89
2023-03-22T09:56:20.881Z,10.84
2023-03-22T09:58:51.064Z,10.77
2023-03-22T10:01:35.217Z,10.66
2023-03-22T10:04:06.940Z,10.63
2023-03-22T10:06:33.525Z,10.56
2023-03-22T10:09:13.804Z,10.56
2023-03-22T10:11:55.734Z,10.58
2023-03-22T10:14:35.813Z,10.57
2023-03-22T10:17:06.625Z,10.57
2023-03-22T10:19:58.192Z,10.56
2023-03-22T10:22:33.829Z,10.55
2023-03-22T10:25:01.498Z,10.54
2023-03-22T10:27:30.551Z,10.55
2023-03-22T10:30:08.396Z,10.57
2023-03-22T10:32:56.857Z,10.59
2023-03-22T10:35:24.382Z,10.58
2023-03-22T10:37:52.559Z,10.57
2023-03-22T10:40:23.823Z,10.56
2023-03-22T10:42:57.001Z,10.58
2023-03-22T10:45:26.213Z,10.54
2023-03-22T10:48:03.856Z,10.50
2023-03-22T10:50:34.921Z,10.47
2023-03-22T10:53:05.924Z,10.48
2023-03-22T10:55:32.811Z,10.44
2023-03-22T10:58:14.716Z,10.41
2023-03-22T11:01:07.447Z,10.43
2023-03-22T11:03:43.018Z,10.50
2023-03-22T11:06:13.321Z,10.55
2023-03-22T11:08:41.763Z,10.56
2023-03-22T11:11:16.465Z,10.58
2023-03-22T11:13:43.161Z,10.69
2023-03-22T11:16:09.817Z,10.76
2023-03-22T11:18:36.505Z,10.84
2023-03-22T11:21:09.667Z,10.85
2023-03-22T11:23:38.747Z,10.86
2023-03-22T11:26:11.332Z,10.86
2023-03-22T11:28:47.489Z,10.80
2023-03-22T11:31:17.115Z,10.81
2023-03-22T11:33:55.900Z,10.83
2023-03-22T11:36:23.214Z,10.82
2023-03-22T11:38:57.123Z,10.83
2023-03-22T11:41:27.139Z,10.86
2023-03-22T11:44:01.119Z,10.90
2023-03-22T11:46:29.402Z,10.92
2023-03-22T11:49:02.978Z,10.91
2023-03-22T11:51:33.349Z,10.90
2023-03-22T11:54:20.646Z,10.89
2023-03-22T11:56:49.394Z,10.88
2023-03-22T11:59:23.934Z,10.82
2023-03-22T12:02:20.406Z,10.81
2023-03-22T12:04:50.020Z,10.80
2023-03-22T12:07:21.504Z,10.75
2023-03-22T12:10:11.985Z,10.76
2023-03-22T12:13:00.641Z,10.77
2023-03-22T12:15:34.532Z,10.76
2023-03-22T12:18:08.377Z,10.76
2023-03-22T12:20:41.979Z,10.78
2023-03-22T12:23:35.245Z,10.81
2023-03-22T12:26:21.533Z,10.82
2023-03-22T12:28:56.368Z,10.89
2023-03-22T12:31:31.915Z,10.90
2023-03-22T12:34:04.944Z,10.89
2023-03-22T12:36:42.955Z,10.90
2023-03-22T12:39:19.330Z,10.88
2023-03-22T12:41:49.520Z,10.89
2023-03-22T12:44:25.130Z,10.89
2023-03-22T12:46:57.811Z,10.88
2023-03-22T12:49:32.617Z,10.90
2023-03-22T12:52:17.734Z,10.93
2023-03-22T12:54:47.466Z,10.92
2023-03-22T12:57:16.638Z,10.97
2023-03-22T12:59:48.895Z,10.97
2023-03-22T13:02:27.304Z,10.96
2023-03-22T13:04:59.213Z,11.00
2023-03-22T13:07:31.658Z,11.00
2023-03-22T13:10:00.029Z,10.99
2023-03-22T13:12:31.663Z,10.99
2023-03-22T13:15:00.266Z,11.00
2023-03-22T13:17:27.392Z,11.02
2023-03-22T13:20:11.379Z,11.00
2023-03-22T13:22:37.910Z,10.99
2023-03-22T13:25:08.691Z,10.96
2023-03-22T13:28:12.798Z,10.96
2023-03-22T13:30:52.682Z,10.96
2023-03-22T13:33:26.448Z,10.97
2023-03-22T13:35:57.668Z,10.99
2023-03-22T13:38:27.688Z,11.01
2023-03-22T13:41:22.196Z,11.06
2023-03-22T13:43:51.188Z,11.11
2023-03-22T13:46:17.895Z,11.09
2023-03-22T13:48:51.886Z,11.09
2023-03-22T13:51:30.979Z,11.07
2023-03-22T13:54:13.129Z,11.09
2023-03-22T13:56:42.996Z,11.12
2023-03-22T13:59:27.931Z,11.13
2023-03-22T14:02:00.169Z,11.11
2023-03-22T14:04:37.140Z,11.09
2023-03-22T14:07:45.278Z,11.11
2023-03-22T14:10:36.463Z,11.14
2023-03-22T14:13:02.931Z,11.16
2023-03-22T14:15:36.181Z,11.18
2023-03-22T14:18:17.805Z,11.23
2023-03-22T14:20:48.210Z,11.22
